EGGWEGSS

Guest
Details From EGGW - London Luton
To EGSS - London Stansted
Flight Number -
Tags generated
Created
Modified
Stats Distance 26 nm / 49 km
Max Altitude 1,900 ft / 579 m
Waypoints 3
Social Downloads 3
Likes 0
Share VATSIM

Download

Looking for another format? Having issues loading an existing format? Contact us
Advertisement - Login to hide

Notes

Basic altitude profile: - Ascent Rate: 700ft/min - Ascent Speed: 60kts - Cruise Altitude: 4000ft - Cruise Speed: 100kts - Descent Rate: 700ft/min - Descent Speed: 70kts Options: - Use NATs: yes - Use PACOTS: yes - Use low airways: yes - Use high airways: yes

Route

EGGW BKY EGSS

ID Type Via Altitude Latitude Longitude Leg Dist Tot Dist Heading (true) Name
O EGGW APT - 0 ft / 0 m 51.87463˚ -0.36845˚ - 0 nm - London Luton
BKY VOR - 1,900 ft / 579 m 51.98972˚ 0.06194˚ 17 nm 17 nm 66° / 67° BARKWAY VOR-DME
O EGSS APT - 0 ft / 0 m 51.88510˚ 0.23496˚ 8 nm 26 nm 134° / 135° London Stansted

Altitude Profile

Advertisement - Login to hide

EGGW

Details ICAO EGGW (LTN)
Name London Luton
Region United Kingdom
Timezone Europe/London (UTC+1.0)
Stats Elevation 526 ft / 160 m (AMSL)
Location 51.874629° -0.368450°
Runways 1
Magnetic Variation 0.509° W

METAR

EGGW 202150Z AUTO 12002KT 9999 NCD 11/09 Q1020

Decode

TAF

TAF AMD EGGW 202153Z 2021/2118 12006KT 9999 FEW035 BECMG 2021/2024 4000 BR TEMPO 2100/2107 0300 FG OVC000 BECMG 2107/2110 9999 NSW

Decode

Departure Runways

ID Width Length Bearing (true) Bearing (mag) Surface Threshold Offset Overrun Length
08 151 ft / 46 m 7,066 ft / 2,154 m 74.35° 74.86° Asphalt 0 ft / 0 m 200 ft / 61 m
26 151 ft / 46 m 7,066 ft / 2,154 m 254.38° 254.89° Asphalt 272 ft / 83 m 0 ft / 0 m

EGSS

Details ICAO EGSS (STN)
Name London Stansted
Region United Kingdom
Timezone Europe/London (UTC+1.0)
Stats Elevation 348 ft / 106 m (AMSL)
Location 51.885097° 0.234962°
Runways 1
Magnetic Variation 0.299° W

METAR

EGSS 202150Z AUTO 12004KT 4400 BR NCD 10/09 Q1021

Decode

TAF

TAF AMD EGSS 202143Z 2021/2124 12005KT 4000 BR FEW035 TEMPO 2022/2107 0200 FG OVC000 BECMG 2107/2110 9999 NSW BECMG 2118/2121 01010KT

Decode

Destination Runways

ID Width Length Bearing (true) Bearing (mag) Surface Threshold Offset Overrun Length
04 151 ft / 46 m 10,011 ft / 3,052 m 42.79° 43.09° Asphalt 994 ft / 303 m 0 ft / 0 m
22 151 ft / 46 m 10,011 ft / 3,052 m 222.81° 223.11° Asphalt 0 ft / 0 m 0 ft / 0 m

Approach Navaids

Runway Type Ident Frequency Range Bearing (true) Bearing (mag) Slope Elevation
04 Localiser ISED 110.50 MHz 18 nm / 33 km 42.80° 43.10° - 348 ft / 106 m (AMSL)
04 Glidescope ISED 110.50 MHz 10 nm / 19 km 42.80° 43.10° 3.00° 348 ft / 106 m (AMSL)
04 DME ISED 110.50 MHz 18 nm / 33 km - - - 348 ft / 106 m (AMSL)
22 Localiser ISX 110.50 MHz 18 nm / 33 km 222.80° 223.10° - 348 ft / 106 m (AMSL)
22 Glidescope ISX 110.50 MHz 10 nm / 19 km 222.80° 223.10° 3.00° 348 ft / 106 m (AMSL)
22 DME ISX 110.50 MHz 18 nm / 33 km - - - 348 ft / 106 m (AMSL)

Popular Alternatives